Time;durP1;ratioP1;P1;durP2;ratioP2;P2;SDS_P1;SDS_P2;PMS_P1;PMS_P2;Temp;Humidity;BMP_temperature;BMP_pressure;BME280_temperature;BME280_humidity;BME280_pressure;Samples;Min_cycle;Max_cycle;Signal;HPM_P1;HPM_P2
2021/08/17 04:15:57;;;;;;;14.70;6.88;;;;;;;9.69;100.00;99192.56;5786242;22;20506;-75
2021/08/17 04:18:22;;;;;;;13.05;7.07;;;;;;;9.62;100.00;99190.88;4993932;28;20046;-73
2021/08/17 04:20:48;;;;;;;11.73;6.53;;;;;;;9.52;100.00;99203.91;4993868;28;20088;-73
2021/08/17 04:23:13;;;;;;;12.25;7.10;;;;;;;9.53;100.00;99200.44;4993726;28;20026;-73
2021/08/17 04:25:38;;;;;;;15.25;6.60;;;;;;;9.42;100.00;99204.81;4992961;28;20069;-73
2021/08/17 04:28:04;;;;;;;13.20;6.85;;;;;;;9.36;100.00;99215.19;5007724;23;20458;-75
2021/08/17 04:30:29;;;;;;;11.65;6.15;;;;;;;9.47;100.00;99210.81;4993677;28;20106;-79
2021/08/17 04:32:55;;;;;;;13.70;7.18;;;;;;;9.62;100.00;99208.97;4996006;28;20419;-80
2021/08/17 04:35:20;;;;;;;13.35;6.68;;;;;;;9.57;100.00;99208.16;4993442;28;20093;-72
2021/08/17 04:37:46;;;;;;;12.93;7.05;;;;;;;9.67;100.00;99213.28;4993574;28;20029;-77
2021/08/17 04:40:12;;;;;;;14.30;7.15;;;;;;;9.79;100.00;99204.56;4993391;28;20030;-72
2021/08/17 04:42:38;;;;;;;12.50;6.72;;;;;;;9.95;100.00;99213.91;4993246;28;20033;-80
2021/08/17 04:45:04;;;;;;;16.13;6.53;;;;;;;10.18;100.00;99215.44;4993421;28;20053;-72
2021/08/17 04:47:30;;;;;;;14.23;7.10;;;;;;;10.47;100.00;99208.25;4993203;28;20027;-73
2021/08/17 04:49:55;;;;;;;17.13;7.13;;;;;;;10.25;100.00;99214.53;4989806;28;20545;-71
2021/08/17 04:52:20;;;;;;;10.75;6.85;;;;;;;10.32;100.00;99213.59;4973721;28;20384;-77
2021/08/17 04:54:45;;;;;;;11.75;5.70;;;;;;;10.38;99.86;99218.72;4973952;28;20054;-79
2021/08/17 04:57:13;;;;;;;8.80;6.43;;;;;;;10.48;99.04;99209.97;4973634;28;20404;-79
2021/08/17 04:59:39;;;;;;;7.63;5.35;;;;;;;10.63;98.37;99208.09;4973700;28;20030;-72
2021/08/17 05:02:04;;;;;;;11.18;6.28;;;;;;;10.36;98.36;99220.47;4978062;28;20032;-77
2021/08/17 05:04:30;;;;;;;10.57;6.30;;;;;;;10.58;97.65;99220.25;4984939;28;20026;-72
2021/08/17 05:06:55;;;;;;;12.13;5.95;;;;;;;10.51;97.78;99224.63;4992903;28;20101;-77
2021/08/17 05:09:20;;;;;;;12.63;6.00;;;;;;;10.71;97.22;99217.50;4993003;28;20022;-72
2021/08/17 05:11:46;;;;;;;10.20;5.35;;;;;;;10.64;95.46;99215.88;4992607;28;20141;-77
2021/08/17 05:14:11;;;;;;;10.50;5.72;;;;;;;10.94;95.37;99230.19;4992940;28;20037;-79
2021/08/17 05:16:36;;;;;;;9.93;6.05;;;;;;;11.09;95.47;99239.50;4992868;28;20490;-77
2021/08/17 05:19:02;;;;;;;9.30;5.60;;;;;;;11.11;93.72;99247.25;4992651;28;20019;-77
2021/08/17 05:21:27;;;;;;;9.93;5.80;;;;;;;11.35;95.19;99236.56;4976767;28;20034;-72
2021/08/17 05:23:53;;;;;;;15.23;6.25;;;;;;;11.29;92.35;99252.22;4973312;28;20522;-79
2021/08/17 05:26:18;;;;;;;10.00;5.47;;;;;;;11.61;91.38;99240.56;4973329;28;20488;-79
2021/08/17 05:28:43;;;;;;;12.52;6.03;;;;;;;11.89;92.91;99249.63;4973202;28;20556;-73
2021/08/17 05:31:09;;;;;;;13.35;5.53;;;;;;;11.79;89.81;99241.09;4973203;28;20113;-78
2021/08/17 05:33:34;;;;;;;12.40;5.43;;;;;;;11.81;89.88;99241.09;4983803;28;20138;-72
2021/08/17 05:35:59;;;;;;;12.25;5.72;;;;;;;11.89;89.07;99244.44;4990441;28;20080;-72
2021/08/17 05:38:25;;;;;;;10.60;5.60;;;;;;;11.98;90.07;99239.09;4992558;28;20101;-73
2021/08/17 05:40:50;;;;;;;9.93;5.82;;;;;;;12.00;92.10;99245.16;4992391;28;20029;-73
2021/08/17 05:43:15;;;;;;;14.20;6.35;;;;;;;12.21;92.28;99235.28;4992386;28;20033;-78
2021/08/17 05:45:41;;;;;;;9.88;5.63;;;;;;;12.28;88.73;99235.16;4992559;28;20030;-73
2021/08/17 05:48:06;;;;;;;8.40;5.70;;;;;;;12.01;89.35;99236.47;4992282;28;20038;-72
2021/08/17 05:50:31;;;;;;;10.57;5.65;;;;;;;11.95;87.68;99239.19;4984203;28;20027;-77
2021/08/17 05:52:57;;;;;;;12.60;5.47;;;;;;;11.97;91.33;99237.41;4972926;28;20022;-77
2021/08/17 05:55:22;;;;;;;15.48;6.75;;;;;;;12.00;90.14;99236.50;4972998;28;20026;-78
2021/08/17 05:57:59;;;;;;;9.55;5.05;;;;;;;11.98;87.01;99241.69;4973049;28;20139;-73
2021/08/17 06:00:26;;;;;;;8.63;5.65;;;;;;;12.46;89.28;99241.75;4972936;28;20038;-78
2021/08/17 06:02:52;;;;;;;9.40;5.55;;;;;;;12.34;86.88;99242.84;4983604;28;20529;-80
2021/08/17 06:05:17;;;;;;;13.85;5.93;;;;;;;12.37;88.39;99235.84;4984644;28;20025;-79
2021/08/17 06:07:47;;;;;;;11.65;5.60;;;;;;;12.34;86.79;99241.97;4992398;28;20027;-73
2021/08/17 06:10:13;;;;;;;9.95;4.90;;;;;;;12.31;86.52;99242.03;4992163;28;20488;-72
2021/08/17 06:12:38;;;;;;;9.82;5.60;;;;;;;12.49;86.75;99244.31;4992410;28;20109;-79
2021/08/17 06:15:05;;;;;;;12.27;5.28;;;;;;;12.69;85.89;99243.06;4992260;28;20093;-72
2021/08/17 06:17:30;;;;;;;8.30;5.03;;;;;;;12.72;83.96;99243.03;4992247;28;20036;-79
2021/08/17 06:19:55;;;;;;;8.38;4.95;;;;;;;12.60;85.81;99244.94;4988450;28;20039;-80
2021/08/17 06:22:20;;;;;;;11.35;5.10;;;;;;;12.80;82.76;99251.50;4972618;28;20031;-73
2021/08/17 06:24:46;;;;;;;10.93;6.57;;;;;;;12.95;81.83;99235.59;4972770;28;20034;-77
2021/08/17 06:27:11;;;;;;;10.60;4.90;;;;;;;13.21;82.27;99235.09;4972816;28;20038;-80
2021/08/17 06:29:36;;;;;;;10.15;5.53;;;;;;;13.52;79.94;99243.09;4972555;28;20399;-79
2021/08/17 06:32:02;;;;;;;8.65;4.95;;;;;;;13.45;81.31;99256.31;4976897;28;20045;-72
2021/08/17 06:34:27;;;;;;;7.55;4.75;;;;;;;13.53;80.46;99250.00;4983982;28;20037;-79
2021/08/17 06:36:53;;;;;;;12.07;5.38;;;;;;;13.70;79.61;99252.25;4992534;28;20026;-80
2021/08/17 06:39:20;;;;;;;8.98;5.15;;;;;;;13.20;80.78;99254.19;4991996;28;20093;-79
2021/08/17 06:41:46;;;;;;;10.30;5.60;;;;;;;13.70;78.62;99256.59;4991824;28;20080;-79
2021/08/17 06:44:12;;;;;;;7.40;4.55;;;;;;;14.17;78.23;99268.50;4992011;28;20428;-78
2021/08/17 06:46:37;;;;;;;9.80;4.78;;;;;;;14.31;79.55;99270.75;4991936;28;20064;-79
2021/08/17 06:49:02;;;;;;;11.52;4.85;;;;;;;15.00;75.95;99267.22;4977294;28;20026;-73
2021/08/17 06:51:28;;;;;;;7.63;4.63;;;;;;;15.35;70.38;99262.72;4979428;28;20089;-72
2021/08/17 06:53:53;;;;;;;7.75;4.45;;;;;;;15.87;67.52;99264.63;4968369;28;20035;-73
2021/08/17 06:56:18;;;;;;;5.85;4.30;;;;;;;16.97;63.01;99252.22;4973860;28;20047;-73
2021/08/17 06:58:44;;;;;;;10.00;4.47;;;;;;;18.21;61.20;99250.88;4973879;28;20419;-72
2021/08/17 07:01:09;;;;;;;9.82;3.90;;;;;;;18.24;56.23;99252.53;4985354;28;20038;-73
2021/08/17 07:03:34;;;;;;;6.18;4.07;;;;;;;17.23;60.43;99263.50;4988954;28;20093;-72
2021/08/17 07:06:00;;;;;;;10.38;4.25;;;;;;;17.59;61.64;99266.47;4993132;28;20030;-73
2021/08/17 07:08:25;;;;;;;10.82;3.92;;;;;;;18.77;56.74;99269.56;4994663;28;20118;-73
2021/08/17 07:10:51;;;;;;;8.57;3.83;;;;;;;17.93;59.02;99277.34;4994181;28;20076;-73
2021/08/17 07:13:16;;;;;;;7.70;4.13;;;;;;;17.32;60.44;99279.72;4986176;28;20105;-73
2021/08/17 07:15:42;;;;;;;12.15;4.53;;;;;;;16.89;63.49;99280.44;4994864;28;20018;-73
2021/08/17 07:18:08;;;;;;;7.28;4.22;;;;;;;18.43;56.62;99274.44;4994813;28;20101;-73
2021/08/17 07:20:34;;;;;;;5.35;3.70;;;;;;;20.12;52.61;99278.22;4985430;28;20086;-78
2021/08/17 07:22:59;;;;;;;5.60;4.18;;;;;;;20.25;51.50;99279.28;4974719;28;20074;-80
2021/08/17 07:25:25;;;;;;;10.70;4.38;;;;;;;21.44;47.10;99276.72;4975134;28;20027;-78
2021/08/17 07:27:50;;;;;;;6.05;4.00;;;;;;;21.80;46.05;99277.31;4975219;28;20050;-78
2021/08/17 07:30:16;;;;;;;7.63;4.30;;;;;;;21.55;49.24;99276.97;4975104;28;20117;-78
2021/08/17 07:32:43;;;;;;;7.63;4.40;;;;;;;22.49;47.63;99272.56;4980955;28;20026;-73
2021/08/17 07:35:10;;;;;;;5.38;3.70;;;;;;;23.86;43.08;99276.47;4986304;28;20053;-73
2021/08/17 07:37:37;;;;;;;6.68;4.50;;;;;;;23.30;41.88;99279.06;4994371;28;20022;-74
2021/08/17 07:40:04;;;;;;;7.22;3.83;;;;;;;21.71;45.35;99283.13;4994386;28;20026;-73
2021/08/17 07:42:29;;;;;;;9.45;4.30;;;;;;;21.88;45.58;99278.69;4994156;28;20077;-73
2021/08/17 07:44:54;;;;;;;8.63;4.15;;;;;;;20.91;47.87;99275.97;4993408;28;20116;-78
2021/08/17 07:47:20;;;;;;;10.23;4.28;;;;;;;20.75;48.20;99270.66;4994358;28;20030;-79
2021/08/17 07:49:45;;;;;;;8.02;4.60;;;;;;;19.50;51.30;99269.72;4978803;28;20515;-78
2021/08/17 07:52:10;;;;;;;8.63;4.45;;;;;;;18.54;52.84;99279.25;4974625;28;20106;-73
2021/08/17 07:54:37;;;;;;;7.43;4.43;;;;;;;17.74;56.33;99276.38;4974498;28;20030;-73
2021/08/17 07:57:03;;;;;;;7.80;4.80;;;;;;;16.69;62.65;99295.03;4973886;28;20034;-72
2021/08/17 07:59:28;;;;;;;7.78;4.85;;;;;;;16.20;61.02;99301.06;4974550;28;20023;-80
2021/08/17 08:01:53;;;;;;;9.63;5.53;;;;;;;16.10;66.07;99295.28;4974871;28;20117;-79
2021/08/17 08:04:19;;;;;;;9.65;5.20;;;;;;;18.12;56.55;99290.59;4985828;28;20015;-79
2021/08/17 08:06:44;;;;;;;6.97;4.45;;;;;;;21.91;45.99;99273.25;4993252;28;20018;-78
2021/08/17 08:09:09;;;;;;;7.20;4.10;;;;;;;23.97;40.44;99279.25;4979125;28;20022;-79
2021/08/17 08:11:35;;;;;;;4.97;4.20;;;;;;;22.63;42.41;99280.53;4974203;28;20030;-74
2021/08/17 08:14:00;;;;;;;6.57;4.18;;;;;;;22.55;43.32;99272.19;4969738;28;20492;-80
2021/08/17 08:16:26;;;;;;;8.48;5.15;;;;;;;19.21;49.64;99289.47;4967705;28;20027;-78
2021/08/17 08:18:51;;;;;;;7.80;4.90;;;;;;;19.46;49.45;99281.31;4973331;28;20026;-78
2021/08/17 08:21:17;;;;;;;7.20;4.57;;;;;;;20.37;47.17;99284.91;4973624;28;20532;-78
2021/08/17 08:23:42;;;;;;;10.43;4.97;;;;;;;20.76;48.46;99282.91;4974209;28;20444;-78
2021/08/17 08:26:08;;;;;;;9.95;4.47;;;;;;;23.12;41.23;99267.00;4974135;28;20514;-78
2021/08/17 08:28:34;;;;;;;8.50;5.50;;;;;;;23.75;39.19;99269.22;4974032;28;20030;-78
2021/08/17 08:30:59;;;;;;;6.43;4.20;;;;;;;22.22;43.18;99269.72;4973040;28;20392;-73
2021/08/17 08:33:24;;;;;;;6.40;4.30;;;;;;;24.41;39.08;99266.72;4981868;28;20022;-73
2021/08/17 08:35:50;;;;;;;5.55;3.88;;;;;;;25.78;36.82;99257.13;4990085;28;20533;-77
2021/08/17 08:38:15;;;;;;;5.30;3.55;;;;;;;27.87;32.46;99255.22;4975750;28;20102;-78
2021/08/17 08:40:44;;;;;;;6.95;3.70;;;;;;;29.43;31.16;99255.31;4992900;28;20027;-71
2021/08/17 08:43:10;;;;;;;6.40;3.80;;;;;;;27.60;29.66;99260.94;4990845;28;20030;-78
2021/08/17 08:45:35;;;;;;;5.72;3.78;;;;;;;25.71;33.42;99261.16;4980646;28;20130;-79
2021/08/17 08:48:01;;;;;;;5.65;4.00;;;;;;;23.04;39.80;99269.25;4981619;28;20153;-80
2021/08/17 08:50:29;;;;;;;8.05;4.15;;;;;;;20.92;43.47;99282.09;4982922;28;20503;-79
2021/08/17 08:52:58;;;;;;;8.63;4.45;;;;;;;22.05;42.88;99271.53;4991925;28;20030;-79
2021/08/17 08:55:23;;;;;;;7.95;4.35;;;;;;;22.30;44.49;99280.69;4973545;28;20023;-73
2021/08/17 08:57:50;;;;;;;7.55;4.97;;;;;;;23.18;40.81;99277.19;4954716;28;20027;-79
2021/08/17 09:00:16;;;;;;;5.55;3.90;;;;;;;23.01;39.87;99266.78;4964144;28;20035;-73
2021/08/17 09:02:43;;;;;;;7.72;4.13;;;;;;;22.67;39.15;99267.94;4974153;28;20018;-74
2021/08/17 09:05:09;;;;;;;4.60;3.63;;;;;;;23.80;37.47;99261.84;4982461;28;20037;-79
2021/08/17 09:07:42;;;;;;;8.10;3.60;;;;;;;23.92;37.24;99268.13;4992981;28;20471;-73
2021/08/17 09:10:16;;;;;;;5.40;4.15;;;;;;;23.82;37.59;99267.88;4969919;28;20081;-80
2021/08/17 09:12:47;;;;;;;4.57;3.63;;;;;;;24.21;36.43;99263.56;4973230;28;20031;-74
2021/08/17 09:15:19;;;;;;;10.23;3.78;;;;;;;24.22;37.60;99262.59;4973011;28;21972;-80
2021/08/17 09:17:56;;;;;;;7.30;4.75;;;;;;;23.30;37.45;99267.63;4971390;28;20037;-78
2021/08/17 09:20:30;;;;;;;6.63;4.13;;;;;;;20.09;43.07;99277.50;4955867;28;20045;-79
2021/08/17 09:22:55;;;;;;;9.23;4.25;;;;;;;20.88;42.13;99275.28;4972385;28;20081;-78
2021/08/17 09:25:31;;;;;;;7.80;5.03;;;;;;;22.26;37.84;99265.97;4973158;28;20030;-79
2021/08/17 09:27:57;;;;;;;6.80;4.13;;;;;;;22.35;37.93;99261.94;4971998;28;20142;-78
2021/08/17 09:30:23;;;;;;;9.18;4.22;;;;;;;21.38;39.88;99274.44;4976387;28;20026;-78
2021/08/17 09:32:56;;;;;;;5.82;3.90;;;;;;;21.10;41.02;99267.13;4976730;28;20037;-78
2021/08/17 09:35:23;;;;;;;8.13;4.55;;;;;;;21.17;42.52;99260.56;4976192;28;20022;-74
2021/08/17 09:38:09;;;;;;;7.32;5.22;;;;;;;22.31;38.96;99266.56;4990554;28;20106;-74
2021/08/17 09:40:36;;;;;;;5.80;4.50;;;;;;;22.30;38.41;99265.72;4991624;28;20023;-74
2021/08/17 09:43:15;;;;;;;7.47;4.78;;;;;;;21.14;41.71;99255.47;4991200;28;20069;-78
2021/08/17 09:45:41;;;;;;;6.85;5.18;;;;;;;21.36;40.04;99260.47;4990383;28;20030;-73
2021/08/17 09:48:06;;;;;;;7.47;4.65;;;;;;;20.72;42.04;99255.00;4990491;28;20110;-75
2021/08/17 09:50:37;;;;;;;7.20;4.15;;;;;;;20.66;40.22;99252.69;4951495;28;20027;-79
2021/08/17 09:53:18;;;;;;;9.77;4.85;;;;;;;21.35;41.40;99235.88;4972674;28;20098;-78
2021/08/17 09:55:44;;;;;;;6.70;4.65;;;;;;;21.44;40.24;99238.03;4972941;28;20023;-78
2021/08/17 09:58:33;;;;;;;7.28;4.72;;;;;;;20.77;41.29;99238.97;4980129;28;20037;-76
2021/08/17 10:01:04;;;;;;;6.30;4.55;;;;;;;19.97;43.99;99239.50;4989105;28;20113;-78
2021/08/17 10:03:30;;;;;;;7.70;5.25;;;;;;;19.00;44.75;99238.75;4986542;28;20058;-74
2021/08/17 10:05:57;;;;;;;7.63;4.60;;;;;;;19.63;45.61;99246.38;4989253;28;20502;-74
2021/08/17 10:08:25;;;;;;;8.45;4.85;;;;;;;19.71;43.60;99249.47;4992076;28;20373;-78
2021/08/17 10:10:53;;;;;;;10.20;4.43;;;;;;;20.16;44.46;99250.81;4976374;28;20031;-78
2021/08/17 10:13:20;;;;;;;15.48;4.80;;;;;;;20.28;42.11;99247.56;4971944;28;20154;-74
2021/08/17 10:15:47;;;;;;;10.60;5.32;;;;;;;19.68;44.06;99239.13;4979532;28;20510;-78
2021/08/17 10:18:15;;;;;;;5.80;4.25;;;;;;;19.84;44.87;99230.50;4991828;28;20478;-73
2021/08/17 10:20:47;;;;;;;8.20;4.95;;;;;;;20.06;43.81;99236.41;4988609;28;20029;-72
2021/08/17 10:23:15;;;;;;;9.50;5.00;;;;;;;19.74;43.72;99244.09;4974882;28;20109;-72
2021/08/17 10:25:59;;;;;;;7.47;4.50;;;;;;;19.68;43.11;99227.78;4975611;28;20034;-72
2021/08/17 10:28:35;;;;;;;5.88;4.28;;;;;;;20.28;43.22;99215.97;4976663;28;20121;-72
2021/08/17 10:31:12;;;;;;;6.13;4.13;;;;;;;20.02;42.85;99205.94;4976261;28;20014;-72
2021/08/17 10:34:07;;;;;;;4.32;3.83;;;;;;;20.10;42.52;99221.31;4984326;28;20030;-78
2021/08/17 10:36:44;;;;;;;5.38;3.47;;;;;;;20.85;39.95;99206.97;4967376;28;20192;-72
2021/08/17 10:39:18;;;;;;;6.35;3.33;;;;;;;21.67;36.17;99197.19;4976038;28;20026;-72
2021/08/17 10:41:49;;;;;;;5.85;4.13;;;;;;;22.96;35.12;99197.50;4975913;28;20031;-72
2021/08/17 10:44:23;;;;;;;4.70;3.53;;;;;;;23.42;36.24;99207.84;4976055;28;20026;-78
2021/08/17 10:46:53;;;;;;;5.70;3.85;;;;;;;22.54;34.77;99221.16;4975952;28;20392;-72
2021/08/17 10:49:31;;;;;;;8.38;4.40;;;;;;;21.54;38.45;99225.19;4970924;28;20105;-78
2021/08/17 10:52:30;;;;;;;6.80;4.28;;;;;;;21.65;38.13;99199.03;4964876;28;20030;-77
2021/08/17 10:55:33;;;;;;;5.22;3.97;;;;;;;22.07;39.03;99200.16;4971430;28;20038;-73
2021/08/17 10:58:05;;;;;;;5.57;4.22;;;;;;;24.18;33.49;99192.28;4987438;28;20046;-72
2021/08/17 11:00:46;;;;;;;9.48;4.07;;;;;;;25.32;32.19;99186.09;4985562;28;20037;-77
2021/08/17 11:03:12;;;;;;;9.80;4.05;;;;;;;25.34;31.03;99176.25;4981452;28;20030;-77
2021/08/17 11:05:58;;;;;;;4.90;4.07;;;;;;;26.42;31.45;99171.75;4986989;28;20057;-73
2021/08/17 11:08:32;;;;;;;11.50;7.28;;;;;;;26.77;29.10;99182.34;4994514;28;20042;-79
2021/08/17 11:11:03;;;;;;;5.38;4.25;;;;;;;24.70;33.16;99182.56;4994172;28;20022;-72
2021/08/17 11:13:29;;;;;;;7.47;4.35;;;;;;;25.07;32.78;99180.88;4994897;28;20025;-72
2021/08/17 11:16:11;;;;;;;4.75;3.47;;;;;;;25.30;30.12;99174.78;4994888;28;20030;-74
2021/08/17 11:18:57;;;;;;;5.22;3.20;;;;;;;24.32;29.46;99173.66;4994771;28;20049;-77
2021/08/17 11:21:45;;;;;;;4.05;3.17;;;;;;;23.39;34.25;99160.44;4979247;28;20070;-77
2021/08/17 11:24:19;;;;;;;4.63;3.42;;;;;;;23.26;33.04;99150.66;4974785;28;20110;-73
2021/08/17 11:26:49;;;;;;;4.88;3.30;;;;;;;24.56;32.08;99138.47;4975197;28;20027;-72
2021/08/17 11:29:49;;;;;;;5.35;3.40;;;;;;;25.82;29.64;99135.59;4975039;28;20029;-72
2021/08/17 11:32:41;;;;;;;6.15;3.33;;;;;;;26.50;28.67;99141.97;4977868;28;20061;-78
2021/08/17 11:35:15;;;;;;;4.03;3.17;;;;;;;26.83;27.31;99139.31;4975503;28;20046;-72
2021/08/17 11:37:46;;;;;;;4.15;3.33;;;;;;;26.97;25.35;99140.88;4975207;28;20058;-78
2021/08/17 11:40:14;;;;;;;4.57;3.17;;;;;;;26.81;27.34;99146.56;4975009;28;20018;-73
2021/08/17 11:42:49;;;;;;;8.65;5.57;;;;;;;26.54;26.70;99154.88;4974370;28;20069;-77
2021/08/17 11:45:18;;;;;;;3.95;3.20;;;;;;;26.36;27.60;99151.81;4974309;28;20023;-72
2021/08/17 11:47:48;;;;;;;3.97;3.15;;;;;;;26.03;27.89;99155.25;4980312;28;20033;-72
2021/08/17 11:50:16;;;;;;;4.85;2.72;;;;;;;26.54;28.03;99164.66;4976181;28;20109;-78
2021/08/17 11:52:41;;;;;;;5.10;3.43;;;;;;;26.11;28.58;99160.00;4974752;28;20026;-72
2021/08/17 11:55:09;;;;;;;4.33;3.37;;;;;;;27.74;26.74;99167.50;4957298;28;20484;-78
2021/08/17 11:57:38;;;;;;;4.80;3.20;;;;;;;26.99;28.60;99156.72;4953166;28;20282;-77
2021/08/17 12:00:11;;;;;;;3.40;2.80;;;;;;;27.38;27.75;99150.88;4953765;28;20399;-72
2021/08/17 12:02:39;;;;;;;4.55;3.42;;;;;;;26.24;29.01;99151.91;4953261;28;20042;-78
2021/08/17 12:05:07;;;;;;;10.85;3.97;;;;;;;25.14;29.80;99160.91;4954494;28;20043;-78
2021/08/17 12:07:34;;;;;;;4.70;3.50;;;;;;;24.23;31.72;99168.97;4952155;28;20029;-72
2021/08/17 12:10:08;;;;;;;4.78;3.25;;;;;;;23.00;35.00;99167.31;4953469;28;20283;-78
2021/08/17 12:12:52;;;;;;;4.57;3.20;;;;;;;22.01;36.24;99158.31;4953626;28;20610;-78
2021/08/17 12:15:18;;;;;;;5.43;3.30;;;;;;;20.55;39.70;99162.91;4952890;28;20035;-77
2021/08/17 12:18:00;;;;;;;5.63;3.50;;;;;;;21.37;36.01;99173.41;4954142;28;20489;-72
2021/08/17 12:20:26;;;;;;;18.63;12.40;;;;;;;21.74;37.59;99163.38;4952933;28;20041;-78
2021/08/17 12:22:51;;;;;;;5.80;3.40;;;;;;;21.30;37.14;99166.72;4953711;28;20031;-78
2021/08/17 12:25:24;;;;;;;3.78;3.22;;;;;;;21.77;35.92;99156.16;4953597;28;20030;-72
2021/08/17 12:27:56;;;;;;;16.20;3.72;;;;;;;21.69;36.90;99153.09;4953486;28;20034;-72
2021/08/17 12:30:26;;;;;;;3.90;3.20;;;;;;;21.95;38.19;99140.16;4952082;28;20027;-72
2021/08/17 12:32:53;;;;;;;4.35;3.25;;;;;;;21.43;36.42;99140.56;4942807;28;20049;-78
2021/08/17 12:35:28;;;;;;;11.00;5.68;;;;;;;21.19;37.71;99148.88;4941922;28;20074;-72
2021/08/17 12:37:53;;;;;;;5.53;3.47;;;;;;;20.22;37.67;99150.50;4939017;28;20037;-78
2021/08/17 12:40:19;;;;;;;3.55;2.95;;;;;;;20.16;39.75;99152.59;4931448;28;20027;-72
2021/08/17 12:42:45;;;;;;;8.07;3.47;;;;;;;20.82;38.74;99138.63;4928542;28;20413;-78
2021/08/17 12:45:15;;;;;;;5.75;3.42;;;;;;;20.67;37.47;99128.00;4922883;28;20030;-73
2021/08/17 12:47:57;;;;;;;6.38;3.13;;;;;;;20.62;40.59;99116.00;4924064;28;20543;-78
2021/08/17 12:50:22;;;;;;;4.30;3.25;;;;;;;21.08;37.80;99113.50;4924222;28;20110;-78
2021/08/17 12:52:50;;;;;;;5.50;4.68;;;;;;;21.56;37.10;99125.72;4922206;28;20118;-73
2021/08/17 12:55:23;;;;;;;3.40;2.75;;;;;;;21.14;36.15;99129.84;4920941;28;20400;-73
2021/08/17 12:57:54;;;;;;;4.82;2.88;;;;;;;21.39;36.88;99120.56;4924831;28;20031;-78
2021/08/17 13:00:25;;;;;;;5.97;3.53;;;;;;;21.26;36.79;99113.31;4930697;28;20027;-78
2021/08/17 13:02:51;;;;;;;3.83;3.28;;;;;;;21.91;34.83;99115.78;4937913;28;20093;-73
2021/08/17 13:05:19;;;;;;;5.78;3.20;;;;;;;22.30;34.90;99112.56;4927727;28;20027;-72
2021/08/17 13:07:45;;;;;;;5.03;3.20;;;;;;;21.86;35.50;99103.81;4940311;28;20500;-72
2021/08/17 13:10:12;;;;;;;3.50;3.03;;;;;;;22.12;34.43;99100.47;4948301;28;21018;-78
2021/08/17 13:12:39;;;;;;;6.63;5.57;;;;;;;22.69;34.03;99108.41;4946344;28;20031;-73
2021/08/17 13:15:05;;;;;;;4.00;3.20;;;;;;;22.25;35.01;99106.72;4950598;28;20484;-78
2021/08/17 13:17:32;;;;;;;8.82;3.75;;;;;;;22.52;34.01;99090.97;4952299;28;20479;-73
2021/08/17 13:19:58;;;;;;;5.22;3.13;;;;;;;22.06;34.68;99088.47;4952857;28;20484;-73
2021/08/17 13:22:23;;;;;;;5.05;3.50;;;;;;;22.02;34.83;99075.56;4932650;28;20121;-72
2021/08/17 13:24:51;;;;;;;7.57;3.65;;;;;;;22.17;34.23;99074.66;4942954;28;20034;-72
2021/08/17 13:27:16;;;;;;;5.30;3.50;;;;;;;21.11;37.16;99072.00;4940456;28;20034;-73
2021/08/17 13:29:42;;;;;;;3.85;3.15;;;;;;;21.98;34.50;99063.47;4952601;28;20035;-72
2021/08/17 13:32:08;;;;;;;6.07;3.30;;;;;;;21.96;35.79;99081.22;4952223;28;20031;-78
2021/08/17 13:34:34;;;;;;;4.45;3.13;;;;;;;21.98;35.71;99076.66;4953815;28;20035;-72
2021/08/17 13:36:59;;;;;;;4.65;2.95;;;;;;;22.22;35.54;99077.84;4952302;28;20022;-78
2021/08/17 13:39:26;;;;;;;5.05;2.90;;;;;;;22.16;35.56;99083.53;4953426;28;20031;-72
2021/08/17 13:41:51;;;;;;;8.43;6.20;;;;;;;21.99;36.23;99086.28;4952631;28;20030;-73
2021/08/17 13:44:17;;;;;;;5.38;3.42;;;;;;;21.96;36.27;99087.31;4953416;28;20073;-73
2021/08/17 13:46:42;;;;;;;3.78;2.90;;;;;;;22.27;35.77;99081.06;4952047;28;20041;-72
2021/08/17 13:49:08;;;;;;;5.47;3.58;;;;;;;21.04;37.50;99074.16;4953331;28;20034;-78
2021/08/17 13:51:33;;;;;;;5.22;4.13;;;;;;;20.48;37.45;99072.00;4951879;28;20031;-72
2021/08/17 13:53:59;;;;;;;5.18;3.33;;;;;;;20.05;38.88;99063.69;4952857;28;20034;-78
2021/08/17 13:56:25;;;;;;;5.93;3.72;;;;;;;21.20;39.63;99050.41;4952557;28;20034;-72
2021/08/17 13:58:51;;;;;;;3.97;3.22;;;;;;;20.59;38.41;99048.56;4956753;28;20063;-78
2021/08/17 14:01:17;;;;;;;3.70;2.90;;;;;;;21.22;38.65;99043.25;4955980;28;20093;-72
2021/08/17 14:03:43;;;;;;;4.95;3.60;;;;;;;21.35;37.35;99029.41;4957005;28;20046;-72
2021/08/17 14:06:09;;;;;;;5.47;3.47;;;;;;;21.23;38.00;99034.44;4938421;28;20444;-78
2021/08/17 14:08:35;;;;;;;5.40;3.30;;;;;;;21.34;39.27;99040.91;4956459;28;20031;-72
2021/08/17 14:11:00;;;;;;;6.32;3.65;;;;;;;20.68;40.62;99047.22;4956659;28;20118;-72
2021/08/17 14:13:27;;;;;;;4.47;3.45;;;;;;;20.59;40.34;99035.38;4956571;28;20042;-77
2021/08/17 14:15:52;;;;;;;5.70;3.20;;;;;;;20.23;40.90;99033.78;4956403;28;20035;-72
2021/08/17 14:18:17;;;;;;;7.30;3.30;;;;;;;19.63;41.51;99025.56;4955696;28;20050;-78
2021/08/17 14:20:43;;;;;;;3.92;3.45;;;;;;;20.51;38.34;99017.41;4956159;28;20061;-78
2021/08/17 14:23:08;;;;;;;4.68;3.72;;;;;;;20.29;40.57;99024.72;4955780;28;20113;-72
2021/08/17 14:25:34;;;;;;;6.90;3.42;;;;;;;20.40;39.85;99021.50;4955583;28;20037;-73
2021/08/17 14:27:59;;;;;;;4.93;3.33;;;;;;;20.94;39.12;99016.81;4955011;28;20081;-78
2021/08/17 14:30:24;;;;;;;14.70;8.98;;;;;;;21.15;39.00;99009.44;4955640;28;20029;-73
2021/08/17 14:32:50;;;;;;;6.43;3.90;;;;;;;21.51;38.06;99006.47;4952955;28;20145;-78
2021/08/17 14:35:15;;;;;;;5.28;3.78;;;;;;;19.90;41.59;99025.03;4954613;28;21401;-78
2021/08/17 14:37:41;;;;;;;6.25;4.40;;;;;;;20.02;41.25;99016.53;4949717;28;20086;-72
2021/08/17 14:40:07;;;;;;;5.18;3.80;;;;;;;19.95;40.58;99020.41;4956344;28;20023;-78
2021/08/17 14:42:32;;;;;;;10.32;4.32;;;;;;;19.41;42.33;99035.41;4954931;28;20508;-72
2021/08/17 14:44:59;;;;;;;5.78;4.03;;;;;;;19.90;43.31;99027.69;4955173;28;20034;-72
2021/08/17 14:47:25;;;;;;;4.78;3.92;;;;;;;20.35;43.36;99018.28;4954582;28;20034;-79
2021/08/17 14:49:50;;;;;;;9.30;3.42;;;;;;;20.25;42.59;99023.19;4951903;28;20029;-78
2021/08/17 14:52:15;;;;;;;6.38;4.15;;;;;;;20.05;42.47;99028.66;4955638;28;20031;-72
2021/08/17 14:54:41;;;;;;;6.65;3.92;;;;;;;19.56;44.13;99037.25;4955455;28;20062;-73
2021/08/17 14:57:09;;;;;;;10.55;4.13;;;;;;;19.75;44.69;99039.84;4954571;28;20023;-73
2021/08/17 14:59:34;;;;;;;5.30;4.03;;;;;;;19.09;44.98;99043.06;4954200;28;20053;-72
2021/08/17 15:01:59;;;;;;;8.77;4.68;;;;;;;18.98;46.27;99053.25;4954893;28;20038;-72
2021/08/17 15:04:24;;;;;;;5.88;4.30;;;;;;;18.51;46.52;99048.41;4956747;28;20037;-72
2021/08/17 15:06:51;;;;;;;10.65;5.03;;;;;;;18.74;46.78;99055.28;4955390;28;20481;-78
2021/08/17 15:09:16;;;;;;;6.43;4.47;;;;;;;18.75;46.92;99044.69;4954980;28;20027;-78
2021/08/17 15:11:42;;;;;;;10.30;4.75;;;;;;;19.14;45.66;99032.34;4954131;28;20034;-78
2021/08/17 15:14:07;;;;;;;7.60;4.70;;;;;;;19.27;46.16;99029.03;4955291;28;20027;-78
2021/08/17 15:16:33;;;;;;;8.07;4.60;;;;;;;19.45;45.29;99021.19;4954325;28;20031;-78
2021/08/17 15:18:59;;;;;;;6.18;4.38;;;;;;;19.75;44.32;99019.66;4955303;28;20448;-72
2021/08/17 15:21:24;;;;;;;25.77;14.13;;;;;;;19.74;45.00;99019.75;4954573;28;20397;-77
2021/08/17 15:23:50;;;;;;;7.53;4.57;;;;;;;19.80;44.27;99015.94;4954946;28;20034;-78
2021/08/17 15:26:15;;;;;;;6.88;4.82;;;;;;;19.19;46.63;99031.19;4954103;28;20042;-78
2021/08/17 15:28:41;;;;;;;8.40;4.68;;;;;;;19.19;46.40;99035.59;4955304;28;20043;-78
2021/08/17 15:31:07;;;;;;;9.10;4.60;;;;;;;19.19;46.53;99028.56;4954893;28;20082;-73
2021/08/17 15:33:32;;;;;;;8.40;4.53;;;;;;;19.27;46.11;99029.03;4952140;28;20130;-78
2021/08/17 15:35:58;;;;;;;6.90;4.50;;;;;;;19.32;46.46;99020.94;4954435;28;20094;-78
2021/08/17 15:38:25;;;;;;;8.63;5.72;;;;;;;19.04;46.69;99016.19;4954772;28;20377;-72
2021/08/17 15:40:55;;;;;;;6.65;4.60;;;;;;;19.50;46.18;99011.28;4954447;28;20392;-72
2021/08/17 15:43:20;;;;;;;6.80;4.80;;;;;;;18.91;46.64;99009.84;4954796;28;20031;-72
2021/08/17 15:45:46;;;;;;;6.82;4.82;;;;;;;19.12;47.23;99008.78;4953707;28;20117;-73
2021/08/17 15:48:11;;;;;;;6.82;4.57;;;;;;;19.20;46.14;99011.91;4953705;28;20066;-71
2021/08/17 15:50:37;;;;;;;10.10;5.30;;;;;;;19.34;47.16;99020.84;4954281;28;20070;-72